Time;durP1;ratioP1;P1;durP2;ratioP2;P2;SDS_P1;SDS_P2;PMS_P1;PMS_P2;Temp;Humidity;BMP_temperature;BMP_pressure;BME280_temperature;BME280_humidity;BME280_pressure;Samples;Min_cycle;Max_cycle;Signal;HPM_P1;HPM_P2
2022/01/08 00:00:55;;;;;;;10.48;7.75;;;2.20;99.90;;;;;;5047823;28;20021;-43
2022/01/08 00:03:20;;;;;;;8.93;7.55;;;2.20;99.90;;;;;;5047272;28;20132;-42
2022/01/08 00:05:48;;;;;;;9.18;7.50;;;2.20;99.90;;;;;;5047267;28;20021;-43
2022/01/08 00:08:14;;;;;;;10.50;7.75;;;2.10;99.90;;;;;;5036740;28;20230;-43
2022/01/08 00:10:40;;;;;;;11.13;8.48;;;2.10;99.90;;;;;;5048057;28;20090;-44
2022/01/08 00:13:06;;;;;;;9.95;8.25;;;2.00;99.90;;;;;;5047486;28;20045;-43
2022/01/08 00:15:32;;;;;;;9.20;8.07;;;2.00;99.90;;;;;;5046564;28;20605;-43
2022/01/08 00:17:58;;;;;;;9.75;7.78;;;2.00;99.90;;;;;;5047483;28;20021;-43
2022/01/08 00:20:23;;;;;;;10.90;8.40;;;2.00;99.90;;;;;;5047578;28;20036;-43
2022/01/08 00:22:51;;;;;;;10.13;8.38;;;1.90;99.90;;;;;;5046566;28;20087;-44
2022/01/08 00:25:17;;;;;;;9.23;7.80;;;1.90;99.90;;;;;;5048402;28;20060;-42
2022/01/08 00:27:42;;;;;;;9.55;7.57;;;1.80;99.90;;;;;;5047023;28;20061;-41
2022/01/08 00:30:08;;;;;;;11.88;8.43;;;1.80;99.90;;;;;;5046762;28;20384;-42
2022/01/08 00:32:37;;;;;;;10.90;8.38;;;1.80;99.90;;;;;;5047315;28;20068;-44
2022/01/08 00:35:03;;;;;;;9.38;7.85;;;1.80;99.90;;;;;;5047144;28;20583;-43
2022/01/08 00:37:28;;;;;;;12.05;8.30;;;1.70;99.90;;;;;;5046599;28;20021;-42
2022/01/08 00:39:54;;;;;;;12.73;9.30;;;1.70;99.90;;;;;;5045144;28;20032;-43
2022/01/08 00:42:19;;;;;;;10.60;8.23;;;1.70;99.90;;;;;;5047321;28;20043;-43
2022/01/08 00:44:45;;;;;;;9.93;8.25;;;1.70;99.90;;;;;;5046322;28;20029;-42
2022/01/08 00:47:10;;;;;;;11.00;7.78;;;1.70;99.90;;;;;;5047543;28;20017;-44
2022/01/08 00:49:37;;;;;;;9.55;7.90;;;1.60;99.90;;;;;;5047674;28;20032;-43
2022/01/08 00:52:03;;;;;;;8.95;8.05;;;1.60;99.90;;;;;;5045475;28;20138;-43
2022/01/08 00:54:29;;;;;;;9.70;8.70;;;1.60;99.90;;;;;;5046995;28;20031;-43
2022/01/08 00:56:54;;;;;;;10.63;8.45;;;1.60;99.90;;;;;;5046563;28;20063;-44
2022/01/08 00:59:20;;;;;;;9.48;8.07;;;1.60;99.90;;;;;;5046352;28;20445;-43
2022/01/08 01:01:45;;;;;;;12.65;8.40;;;1.60;99.90;;;;;;5046554;28;20063;-44
2022/01/08 01:04:14;;;;;;;10.15;8.75;;;1.60;99.90;;;;;;5046889;28;20033;-43
2022/01/08 01:06:40;;;;;;;13.05;9.02;;;1.60;99.90;;;;;;5046418;28;20111;-43
2022/01/08 01:09:05;;;;;;;12.95;9.13;;;1.60;99.90;;;;;;5046830;28;20120;-42
2022/01/08 01:11:31;;;;;;;12.73;9.00;;;1.60;99.90;;;;;;5046123;28;20068;-43
2022/01/08 01:13:56;;;;;;;12.65;8.98;;;1.60;99.90;;;;;;5046496;28;20040;-44
2022/01/08 01:16:21;;;;;;;12.20;9.10;;;1.60;99.90;;;;;;5046828;28;20112;-43
2022/01/08 01:18:47;;;;;;;11.18;9.00;;;1.60;99.90;;;;;;5045348;28;20082;-42
2022/01/08 01:21:12;;;;;;;12.48;8.45;;;1.60;99.90;;;;;;5046574;28;20111;-43
2022/01/08 01:23:42;;;;;;;10.93;8.38;;;1.60;99.90;;;;;;5046902;28;20028;-43
2022/01/08 01:26:12;;;;;;;10.13;8.63;;;1.60;99.90;;;;;;5045757;28;20480;-43
2022/01/08 01:28:45;;;;;;;10.82;8.07;;;1.50;99.90;;;;;;5046268;28;20029;-44
2022/01/08 01:47:12;;;;;;;10.18;8.00;;;1.30;99.90;;;;;;5046197;28;20106;-42
2022/01/08 01:49:41;;;;;;;9.48;7.93;;;1.30;99.90;;;;;;5046584;28;20021;-44
2022/01/08 01:52:08;;;;;;;11.70;7.78;;;1.30;99.90;;;;;;5045749;28;20056;-42
2022/01/08 01:54:35;;;;;;;10.90;8.20;;;1.30;99.90;;;;;;5045271;28;20021;-41
2022/01/08 01:57:02;;;;;;;11.95;9.02;;;1.30;99.90;;;;;;5046416;28;20031;-42
2022/01/08 01:59:30;;;;;;;11.35;9.05;;;1.20;99.90;;;;;;5046255;28;20654;-43
2022/01/08 02:01:56;;;;;;;10.93;9.30;;;1.20;99.90;;;;;;5045460;28;20029;-42
2022/01/08 02:04:22;;;;;;;13.38;9.30;;;1.20;99.90;;;;;;5045914;28;20032;-43
2022/01/08 02:06:48;;;;;;;12.35;10.35;;;1.20;99.90;;;;;;5046755;28;20029;-42
2022/01/08 02:09:14;;;;;;;10.85;9.15;;;1.20;99.90;;;;;;5049382;28;20488;-43
2022/01/08 02:11:58;;;;;;;10.90;8.15;;;1.20;99.90;;;;;;5049326;28;20036;-44
2022/01/08 02:14:24;;;;;;;8.85;7.45;;;1.20;99.90;;;;;;5049822;28;20021;-43
2022/01/08 02:16:50;;;;;;;11.73;8.02;;;1.20;99.90;;;;;;5048386;28;20027;-44
2022/01/08 02:19:16;;;;;;;10.88;8.23;;;1.10;99.90;;;;;;5050524;28;20381;-43
2022/01/08 02:21:50;;;;;;;10.23;8.50;;;1.10;99.90;;;;;;5049304;28;20393;-43
2022/01/08 02:24:16;;;;;;;11.02;8.35;;;1.10;99.90;;;;;;5050060;28;20033;-43
2022/01/08 02:26:41;;;;;;;11.70;9.70;;;1.10;99.90;;;;;;5049613;28;20028;-43
2022/01/08 02:29:14;;;;;;;13.32;9.18;;;1.10;99.90;;;;;;5048884;28;20021;-44
2022/01/08 02:31:40;;;;;;;12.02;8.93;;;1.10;99.90;;;;;;5049442;28;20124;-42
2022/01/08 02:34:06;;;;;;;12.80;8.98;;;1.10;99.90;;;;;;5049320;28;20495;-44
2022/01/08 02:36:33;;;;;;;12.52;9.20;;;1.10;99.90;;;;;;5049143;28;20013;-44
2022/01/08 02:38:59;;;;;;;11.50;9.40;;;1.10;99.90;;;;;;5049381;28;20071;-43
2022/01/08 02:41:27;;;;;;;12.77;9.52;;;1.10;99.90;;;;;;5049102;28;20021;-45
2022/01/08 02:43:53;;;;;;;15.70;10.82;;;1.10;99.90;;;;;;5048759;28;20032;-44
2022/01/08 02:46:22;;;;;;;9.80;8.80;;;1.20;99.90;;;;;;5049188;28;20613;-43
2022/01/08 02:48:47;;;;;;;10.43;8.57;;;1.20;99.90;;;;;;5049457;28;20460;-43
2022/01/08 02:51:13;;;;;;;11.40;9.35;;;1.30;99.90;;;;;;5048344;28;20053;-45
2022/01/08 02:53:39;;;;;;;15.90;11.02;;;1.30;99.90;;;;;;5048876;28;20032;-42
2022/01/08 02:56:05;;;;;;;14.90;10.60;;;1.40;99.90;;;;;;5048763;28;20461;-43
2022/01/08 02:58:30;;;;;;;16.63;11.30;;;1.50;99.90;;;;;;5048556;28;20021;-43
2022/01/08 03:00:57;;;;;;;12.55;10.18;;;1.60;99.90;;;;;;5048809;28;20140;-42
2022/01/08 03:03:22;;;;;;;15.55;10.65;;;1.60;99.90;;;;;;5048887;28;20032;-42
2022/01/08 03:05:48;;;;;;;11.60;9.70;;;1.70;99.90;;;;;;5047917;28;20029;-43
2022/01/08 03:08:13;;;;;;;13.98;9.65;;;1.80;99.90;;;;;;5049146;28;20111;-43
2022/01/08 03:10:39;;;;;;;10.68;8.55;;;1.80;99.90;;;;;;5048687;28;20053;-45
2022/01/08 03:13:05;;;;;;;12.98;10.63;;;1.90;99.90;;;;;;5047711;28;20694;-43
2022/01/08 03:15:35;;;;;;;13.25;9.68;;;1.90;99.90;;;;;;5049050;28;20021;-41
2022/01/08 03:18:02;;;;;;;11.48;8.63;;;2.00;99.90;;;;;;5047463;28;20736;-42
2022/01/08 03:20:27;;;;;;;13.98;9.13;;;2.00;99.90;;;;;;5047737;28;20029;-43
2022/01/08 03:23:00;;;;;;;11.82;8.77;;;2.00;99.90;;;;;;5048462;28;20036;-43
2022/01/08 03:25:26;;;;;;;;;;;2.00;99.90;;;;;;5048456;28;20040;-43
2022/01/08 03:27:53;;;;;;;10.38;7.45;;;2.00;99.90;;;;;;5048462;28;19912;-43
2022/01/08 03:30:19;;;;;;;11.10;7.57;;;2.00;99.90;;;;;;5048967;28;20437;-44
2022/01/08 03:32:45;;;;;;;14.35;8.73;;;2.00;99.90;;;;;;5047439;28;20166;-44
2022/01/08 03:35:11;;;;;;;11.18;7.40;;;2.10;99.90;;;;;;5048785;28;20104;-43
2022/01/08 03:37:36;;;;;;;9.85;7.53;;;2.00;99.90;;;;;;5048547;28;20035;-42
2022/01/08 03:40:05;;;;;;;11.23;7.63;;;2.00;99.90;;;;;;5047318;28;20405;-44
2022/01/08 03:42:30;;;;;;;11.55;7.82;;;1.90;99.90;;;;;;5047780;28;20519;-43
2022/01/08 03:44:56;;;;;;;10.40;7.90;;;1.90;99.90;;;;;;5048510;28;20033;-44
2022/01/08 03:49:53;;;;;;;11.80;7.50;;;1.90;99.90;;;;;;5047813;28;20044;-43
2022/01/08 03:52:20;;;;;;;8.75;7.50;;;1.80;99.90;;;;;;5048287;28;20366;-44
2022/01/08 03:54:45;;;;;;;10.77;7.30;;;1.70;99.90;;;;;;5046702;28;20028;-43
2022/01/08 03:57:11;;;;;;;9.43;7.60;;;1.70;99.90;;;;;;5047993;28;20033;-43
2022/01/08 03:59:37;;;;;;;8.90;6.80;;;1.60;99.90;;;;;;5047660;28;20017;-43
2022/01/08 04:02:03;;;;;;;8.88;7.07;;;1.50;99.90;;;;;;5047157;28;20123;-43
2022/01/08 04:04:29;;;;;;;8.77;7.35;;;1.50;99.90;;;;;;5047780;28;20082;-43
2022/01/08 04:06:55;;;;;;;9.38;7.55;;;1.40;99.90;;;;;;5047562;28;20039;-43
2022/01/08 04:09:21;;;;;;;8.75;7.45;;;1.30;99.90;;;;;;5047258;28;20358;-42
2022/01/08 04:11:46;;;;;;;9.50;7.80;;;1.30;99.90;;;;;;5047083;28;20021;-42
2022/01/08 04:14:13;;;;;;;8.55;7.40;;;1.20;99.90;;;;;;5047448;28;20428;-44
2022/01/08 04:16:44;;;;;;;8.23;7.07;;;1.20;99.90;;;;;;5047466;28;20082;-42
2022/01/08 04:19:09;;;;;;;10.82;7.82;;;1.20;99.90;;;;;;5047059;28;20047;-44
2022/01/08 04:24:03;;;;;;;10.45;7.43;;;1.10;99.90;;;;;;5047170;28;20021;-42
2022/01/08 04:26:29;;;;;;;8.02;6.78;;;1.10;99.90;;;;;;5047327;28;20388;-43
2022/01/08 04:28:55;;;;;;;7.97;6.72;;;1.00;99.90;;;;;;5047259;28;20017;-43
2022/01/08 04:31:22;;;;;;;7.70;6.55;;;1.00;99.90;;;;;;5046009;28;20102;-43
2022/01/08 04:33:47;;;;;;;8.77;6.95;;;1.00;99.90;;;;;;5047566;28;20056;-44
2022/01/08 04:36:13;;;;;;;7.90;6.65;;;0.90;99.90;;;;;;5046855;28;20044;-42
2022/01/08 04:38:39;;;;;;;9.23;6.70;;;0.90;99.90;;;;;;5047269;28;20185;-43
2022/01/08 04:41:04;;;;;;;10.70;6.82;;;0.90;99.90;;;;;;5047305;28;20562;-41
2022/01/08 04:43:30;;;;;;;9.00;6.47;;;0.90;99.90;;;;;;5046729;28;20045;-44
2022/01/08 04:45:56;;;;;;;9.88;6.35;;;0.80;99.90;;;;;;5046907;28;20017;-43
2022/01/08 04:48:21;;;;;;;8.45;6.40;;;0.80;99.90;;;;;;5047146;28;20435;-44
2022/01/08 04:50:47;;;;;;;9.02;5.63;;;0.80;99.90;;;;;;5045815;28;20107;-43
2022/01/08 04:53:13;;;;;;;8.50;6.20;;;0.80;99.90;;;;;;5047153;28;20476;-43
2022/01/08 04:55:38;;;;;;;8.13;6.18;;;0.80;99.90;;;;;;5046542;28;20044;-43
2022/01/08 04:58:05;;;;;;;9.65;6.38;;;0.80;99.90;;;;;;5046370;28;20039;-44
2022/01/08 05:00:31;;;;;;;7.80;6.28;;;0.70;99.90;;;;;;5046811;28;20027;-43
2022/01/08 05:02:57;;;;;;;6.88;6.10;;;0.70;99.90;;;;;;5046940;28;20021;-44
2022/01/08 05:05:23;;;;;;;8.75;6.00;;;0.70;99.90;;;;;;5046021;28;20094;-42
2022/01/08 05:07:49;;;;;;;8.10;5.78;;;0.70;99.90;;;;;;5046477;28;20023;-43
2022/01/08 05:10:14;;;;;;;9.90;6.50;;;0.70;99.90;;;;;;5047020;28;20025;-42
2022/01/08 05:12:40;;;;;;;9.55;5.65;;;0.70;99.90;;;;;;5045954;28;20452;-43
2022/01/08 05:15:07;;;;;;;9.82;5.43;;;0.70;99.90;;;;;;5046790;28;20052;-42
2022/01/08 05:17:35;;;;;;;9.52;6.03;;;0.70;99.90;;;;;;5045775;28;20128;-43
2022/01/08 05:20:06;;;;;;;7.05;5.40;;;0.70;99.90;;;;;;5046635;28;20044;-43
2022/01/08 05:25:20;;;;;;;8.88;6.35;;;0.70;99.90;;;;;;5026334;28;20044;-43
2022/01/08 05:27:47;;;;;;;7.10;5.43;;;0.70;99.90;;;;;;5042812;28;20025;-44
2022/01/08 05:30:15;;;;;;;8.25;6.18;;;0.60;99.90;;;;;;5046649;28;20116;-42
2022/01/08 05:32:41;;;;;;;8.52;5.93;;;0.60;99.90;;;;;;5045274;28;20697;-43
2022/01/08 05:35:07;;;;;;;8.52;6.13;;;0.60;99.90;;;;;;5046684;28;20487;-43
2022/01/08 05:37:33;;;;;;;8.23;6.13;;;0.60;99.90;;;;;;5046327;28;20480;-43
2022/01/08 05:39:58;;;;;;;7.55;5.68;;;0.60;99.90;;;;;;5045945;28;20020;-42
2022/01/08 05:42:24;;;;;;;8.43;5.78;;;0.60;99.90;;;;;;5047981;28;20033;-44
2022/01/08 05:44:49;;;;;;;6.30;5.40;;;0.50;99.90;;;;;;5049816;28;20021;-42
2022/01/08 05:47:15;;;;;;;7.82;5.82;;;0.50;99.90;;;;;;5049818;28;20051;-43
2022/01/08 05:49:41;;;;;;;8.13;6.00;;;0.60;99.90;;;;;;5050517;28;20681;-43
2022/01/08 05:52:10;;;;;;;8.15;6.15;;;0.50;99.90;;;;;;5049887;28;20083;-42
2022/01/08 05:54:35;;;;;;;9.38;6.05;;;0.50;99.90;;;;;;5049450;28;20021;-43
2022/01/08 05:57:01;;;;;;;9.85;6.10;;;0.50;99.90;;;;;;5050215;28;20031;-43
2022/01/08 05:59:27;;;;;;;8.68;5.38;;;0.50;99.90;;;;;;5050121;28;20465;-41
2022/01/08 06:01:56;;;;;;;7.55;5.55;;;0.50;99.90;;;;;;5049609;28;20428;-43
2022/01/08 06:04:21;;;;;;;9.82;6.47;;;0.50;99.90;;;;;;5050530;28;20031;-44
2022/01/08 06:06:47;;;;;;;8.40;5.97;;;0.50;99.90;;;;;;5049437;28;20029;-41
2022/01/08 06:09:12;;;;;;;8.15;5.70;;;0.50;99.90;;;;;;5049567;28;20045;-43
2022/01/08 06:11:38;;;;;;;7.18;5.55;;;0.50;99.90;;;;;;5030356;28;20474;-42
2022/01/08 06:14:04;;;;;;;8.75;6.40;;;0.50;99.90;;;;;;5043083;28;20067;-43
2022/01/08 06:16:34;;;;;;;8.73;6.35;;;0.50;99.90;;;;;;5049920;28;20707;-43
2022/01/08 06:19:05;;;;;;;7.55;6.57;;;0.50;99.90;;;;;;5049983;28;20017;-43
2022/01/08 06:21:31;;;;;;;8.45;5.50;;;0.50;99.90;;;;;;5049134;28;20013;-43
2022/01/08 06:23:57;;;;;;;8.80;5.70;;;0.50;99.90;;;;;;5049644;28;20475;-42
2022/01/08 06:26:23;;;;;;;9.15;6.05;;;0.50;99.90;;;;;;5049778;28;20525;-43
2022/01/08 06:28:49;;;;;;;7.40;6.07;;;0.40;99.90;;;;;;5049215;28;20063;-43
2022/01/08 06:31:15;;;;;;;6.80;5.57;;;0.40;99.90;;;;;;5049745;28;20538;-43
2022/01/08 06:33:41;;;;;;;6.80;5.20;;;0.40;99.90;;;;;;5049300;28;20028;-42
2022/01/08 06:36:07;;;;;;;12.82;6.03;;;0.40;99.90;;;;;;5049284;28;20029;-43
2022/01/08 06:38:32;;;;;;;12.55;5.93;;;0.40;99.90;;;;;;5049814;28;20118;-42
2022/01/08 06:40:58;;;;;;;11.02;5.88;;;0.40;99.90;;;;;;5049170;28;20025;-43
2022/01/08 06:43:24;;;;;;;9.45;6.10;;;0.40;99.90;;;;;;5048936;28;20029;-43
2022/01/08 06:45:49;;;;;;;8.75;5.88;;;0.40;99.90;;;;;;5048642;28;20025;-42
2022/01/08 06:48:15;;;;;;;7.45;5.38;;;0.40;99.90;;;;;;5049743;28;20116;-43
2022/01/08 06:50:40;;;;;;;6.38;5.55;;;0.40;99.90;;;;;;5048316;28;20075;-43
2022/01/08 06:53:06;;;;;;;6.43;5.15;;;0.40;99.90;;;;;;5049051;28;20060;-41
2022/01/08 06:55:32;;;;;;;7.60;5.15;;;0.40;99.90;;;;;;5048517;28;20029;-44
2022/01/08 06:57:59;;;;;;;6.03;5.18;;;0.40;99.90;;;;;;5048677;28;20060;-43
2022/01/08 07:00:25;;;;;;;7.57;5.47;;;0.40;99.90;;;;;;5049050;28;20100;-43
2022/01/08 07:02:50;;;;;;;7.30;5.53;;;0.40;99.90;;;;;;5049256;28;20111;-43
2022/01/08 07:05:16;;;;;;;7.53;5.43;;;0.40;99.90;;;;;;5048477;28;20017;-44
2022/01/08 07:07:42;;;;;;;6.63;4.78;;;0.40;99.90;;;;;;5048892;28;20798;-43
2022/01/08 07:10:07;;;;;;;9.00;5.82;;;0.50;99.90;;;;;;5047747;28;20026;-44
2022/01/08 07:12:35;;;;;;;6.65;4.78;;;0.50;99.90;;;;;;5049351;28;20045;-43
2022/01/08 07:15:01;;;;;;;8.00;5.13;;;0.50;99.90;;;;;;5048842;28;20013;-42
2022/01/08 07:17:27;;;;;;;8.30;6.07;;;0.50;99.90;;;;;;5048093;28;20032;-42
2022/01/08 07:19:52;;;;;;;7.88;5.18;;;0.50;99.90;;;;;;5049005;28;20033;-42
2022/01/08 07:22:18;;;;;;;8.95;6.07;;;0.50;99.90;;;;;;5048403;28;20063;-43
2022/01/08 07:24:44;;;;;;;9.07;6.13;;;0.50;99.90;;;;;;5048174;28;20028;-43
2022/01/08 07:27:09;;;;;;;8.35;5.78;;;0.60;99.90;;;;;;5048489;28;20100;-42
2022/01/08 07:29:35;;;;;;;8.98;6.35;;;0.60;99.90;;;;;;5048549;28;20029;-42
2022/01/08 07:32:00;;;;;;;11.50;7.05;;;0.60;99.90;;;;;;5047831;28;20064;-44
2022/01/08 07:34:26;;;;;;;13.70;7.72;;;0.70;99.90;;;;;;5048103;28;20032;-43
2022/01/08 07:36:51;;;;;;;12.75;8.35;;;0.70;99.90;;;;;;5048143;28;20039;-44
2022/01/08 07:39:17;;;;;;;11.85;7.78;;;0.70;99.90;;;;;;5048123;28;20025;-43
2022/01/08 07:41:42;;;;;;;11.80;7.15;;;0.70;99.90;;;;;;5047829;28;20031;-44
2022/01/08 07:44:08;;;;;;;10.32;7.47;;;0.70;99.90;;;;;;5048259;28;20032;-42
2022/01/08 07:46:33;;;;;;;14.05;8.27;;;0.70;99.90;;;;;;5047387;28;20056;-42
2022/01/08 07:48:59;;;;;;;14.25;8.80;;;0.70;99.90;;;;;;5048435;28;20025;-42
2022/01/08 07:51:24;;;;;;;14.85;9.55;;;0.80;99.90;;;;;;5047357;28;20132;-43
2022/01/08 07:53:50;;;;;;;11.27;8.38;;;0.80;99.90;;;;;;5053112;28;20021;-42
2022/01/08 07:56:15;;;;;;;10.25;7.82;;;0.80;99.90;;;;;;5062429;28;20033;-42
2022/01/08 07:58:41;;;;;;;14.75;8.40;;;0.90;99.90;;;;;;5044820;28;20031;-43
2022/01/08 08:01:06;;;;;;;12.75;8.20;;;0.90;99.90;;;;;;5045541;28;20028;-43
2022/01/08 08:03:32;;;;;;;12.40;7.88;;;0.90;99.90;;;;;;5046636;28;20515;-43
2022/01/08 08:05:58;;;;;;;8.45;7.55;;;0.90;99.90;;;;;;5046668;28;20028;-43
2022/01/08 08:08:23;;;;;;;11.07;7.57;;;0.90;99.90;;;;;;5046470;28;20037;-43
2022/01/08 08:10:52;;;;;;;10.15;7.18;;;1.00;99.90;;;;;;5046396;28;20108;-43
2022/01/08 08:13:18;;;;;;;8.05;6.50;;;1.00;99.90;;;;;;5047361;28;20116;-43
2022/01/08 08:15:44;;;;;;;8.73;7.30;;;1.00;99.90;;;;;;5045893;28;20411;-43
2022/01/08 08:18:11;;;;;;;12.30;8.75;;;1.10;99.90;;;;;;5046972;28;20032;-43
2022/01/08 08:20:36;;;;;;;13.73;9.25;;;1.10;99.90;;;;;;5045895;28;20021;-43
2022/01/08 08:23:02;;;;;;;13.48;9.25;;;1.10;99.90;;;;;;5046233;28;20035;-44
2022/01/08 08:25:27;;;;;;;11.80;8.88;;;1.10;99.90;;;;;;5046554;28;20025;-44
2022/01/08 08:27:53;;;;;;;11.98;8.60;;;1.20;99.90;;;;;;5046129;28;20146;-43
2022/01/08 08:30:20;;;;;;;10.23;8.10;;;1.30;99.90;;;;;;5046771;28;20029;-43
2022/01/08 08:32:46;;;;;;;11.80;7.97;;;1.30;99.90;;;;;;5046286;28;20488;-43
2022/01/08 08:35:12;;;;;;;11.32;7.30;;;1.30;99.90;;;;;;5045918;28;20121;-42
2022/01/08 08:37:37;;;;;;;9.90;7.55;;;1.30;99.90;;;;;;5046406;28;20464;-43
2022/01/08 08:40:07;;;;;;;11.32;7.85;;;1.40;99.90;;;;;;5046540;28;20071;-43
2022/01/08 08:42:32;;;;;;;10.73;7.65;;;1.40;99.90;;;;;;5045597;28;20020;-42
2022/01/08 08:44:58;;;;;;;10.60;7.32;;;1.50;99.90;;;;;;5046344;28;20048;-43
2022/01/08 08:47:23;;;;;;;8.02;6.95;;;1.50;99.90;;;;;;5046558;28;20036;-43
2022/01/08 08:49:49;;;;;;;10.70;7.07;;;1.50;99.90;;;;;;5044907;28;20025;-44
2022/01/08 08:52:14;;;;;;;11.15;7.55;;;1.50;99.90;;;;;;5046203;28;20048;-44
2022/01/08 08:54:41;;;;;;;12.52;7.63;;;1.60;99.90;;;;;;5046065;28;20489;-44
2022/01/08 08:57:08;;;;;;;11.13;7.70;;;1.60;99.90;;;;;;5045440;28;20503;-43
2022/01/08 08:59:34;;;;;;;9.98;7.63;;;1.60;99.90;;;;;;5045239;28;20067;-43
2022/01/08 09:02:02;;;;;;;10.80;7.40;;;1.70;99.90;;;;;;5046587;28;20047;-45
2022/01/08 09:04:28;;;;;;;9.70;7.38;;;1.70;99.90;;;;;;5044999;28;20024;-43
2022/01/08 09:06:53;;;;;;;8.57;7.43;;;1.70;99.90;;;;;;5046142;28;20491;-43
2022/01/08 09:09:22;;;;;;;9.70;7.70;;;1.80;99.90;;;;;;5045981;28;20036;-43
2022/01/08 09:11:48;;;;;;;10.07;7.47;;;1.80;99.90;;;;;;5045550;28;20079;-44
2022/01/08 09:14:16;;;;;;;12.18;9.13;;;1.80;99.90;;;;;;5046115;28;20049;-44
2022/01/08 09:16:50;;;;;;;13.68;9.00;;;1.90;99.90;;;;;;5044769;28;20500;-43
2022/01/08 09:19:17;;;;;;;13.75;11.02;;;1.90;99.90;;;;;;5045939;28;20417;-44
2022/01/08 09:21:44;;;;;;;15.63;11.45;;;1.90;99.90;;;;;;5045766;28;20017;-43
2022/01/08 09:24:10;;;;;;;16.10;11.55;;;2.00;99.90;;;;;;5044939;28;20018;-43
2022/01/08 09:26:36;;;;;;;16.90;11.32;;;2.00;99.90;;;;;;5046497;28;20017;-45
2022/01/08 09:29:02;;;;;;;14.77;10.23;;;2.00;99.90;;;;;;5045731;28;20567;-43
2022/01/08 09:31:28;;;;;;;12.20;9.60;;;2.00;99.90;;;;;;5045158;28;20024;-42
2022/01/08 09:33:53;;;;;;;14.95;9.40;;;2.10;99.90;;;;;;5046555;28;20038;-43
2022/01/08 09:36:19;;;;;;;13.27;9.82;;;2.10;99.90;;;;;;5045484;28;20021;-44
2022/01/08 09:38:44;;;;;;;16.38;9.07;;;2.20;99.90;;;;;;5045418;28;20408;-43
2022/01/08 09:41:10;;;;;;;14.48;8.80;;;2.20;99.90;;;;;;5045790;28;20412;-43
2022/01/08 09:43:36;;;;;;;11.02;8.68;;;2.30;99.90;;;;;;5045788;28;20021;-44
2022/01/08 09:46:03;;;;;;;11.15;8.07;;;2.30;99.90;;;;;;5044539;28;20569;-43
2022/01/08 09:48:28;;;;;;;11.07;8.25;;;2.30;99.90;;;;;;5045927;28;20025;-42
2022/01/08 09:50:57;;;;;;;15.93;9.43;;;2.40;99.90;;;;;;5044980;28;20044;-43
2022/01/08 09:53:23;;;;;;;10.30;8.55;;;2.40;99.90;;;;;;5045050;28;20481;-43
2022/01/08 09:55:48;;;;;;;14.43;9.15;;;2.40;99.90;;;;;;5045434;28;20096;-43
2022/01/08 09:58:14;;;;;;;13.25;9.32;;;2.40;99.90;;;;;;5046017;28;20064;-42
2022/01/08 10:00:40;;;;;;;15.13;9.68;;;2.50;99.90;;;;;;5044352;28;20023;-43
2022/01/08 10:03:23;;;;;;;15.65;8.88;;;2.50;99.90;;;;;;5045467;28;20120;-43
2022/01/08 10:05:54;;;;;;;22.23;11.38;;;2.60;99.90;;;;;;5045628;28;20150;-43
2022/01/08 10:08:31;;;;;;;14.05;9.07;;;2.60;99.90;;;;;;5046064;28;20028;-42
2022/01/08 10:11:07;;;;;;;12.70;8.77;;;2.60;99.90;;;;;;5045211;28;20131;-44
2022/01/08 10:13:36;;;;;;;13.65;9.68;;;2.60;99.90;;;;;;5035416;28;20493;-43
2022/01/08 10:18:47;;;;;;;11.82;8.60;;;2.70;99.90;;;;;;5036184;28;20110;-43
2022/01/08 10:21:24;;;;;;;20.73;10.05;;;2.80;99.90;;;;;;5045012;28;20457;-44
2022/01/08 10:23:55;;;;;;;17.25;10.50;;;2.80;99.90;;;;;;5034852;28;20396;-43
2022/01/08 10:26:25;;;;;;;16.85;11.05;;;2.90;99.90;;;;;;5046579;28;20702;-42
2022/01/08 10:28:56;;;;;;;15.20;10.63;;;2.90;99.90;;;;;;5045858;28;20028;-43
2022/01/08 10:31:26;;;;;;;15.55;9.80;;;2.90;99.90;;;;;;5049826;28;20075;-43
2022/01/08 10:34:09;;;;;;;16.20;10.77;;;2.90;99.90;;;;;;5049987;28;20025;-43
2022/01/08 10:36:35;;;;;;;;;;;3.00;99.90;;;;;;5049900;28;20419;-43
2022/01/08 10:39:09;;;;;;;17.15;11.45;;;3.00;99.90;;;;;;5049292;28;19905;-43
2022/01/08 10:41:42;;;;;;;16.35;11.00;;;3.10;99.90;;;;;;5048710;28;20437;-44
2022/01/08 10:44:22;;;;;;;18.42;12.38;;;3.10;99.90;;;;;;5049367;28;20025;-43
2022/01/08 10:46:57;;;;;;;16.88;11.18;;;3.20;99.90;;;;;;5048824;28;20115;-43
2022/01/08 10:49:38;;;;;;;16.52;11.00;;;3.20;99.90;;;;;;5048218;28;20036;-43
2022/01/08 10:52:07;;;;;;;15.07;11.43;;;3.30;99.90;;;;;;5049046;28;20869;-42
2022/01/08 10:54:40;;;;;;;16.10;10.88;;;3.40;99.90;;;;;;5049200;28;20043;-43
2022/01/08 10:57:09;;;;;;;;;;;3.40;99.90;;;;;;5048768;28;20354;-42
2022/01/08 10:59:36;;;;;;;17.60;10.48;;;3.50;99.90;;;;;;5048777;28;19904;-43
2022/01/08 11:02:15;;;;;;;19.98;12.82;;;3.50;99.90;;;;;;5049217;28;20037;-43
2022/01/08 11:04:53;;;;;;;16.88;11.85;;;3.50;99.90;;;;;;5045612;28;20013;-43
2022/01/08 11:07:29;;;;;;;16.45;11.50;;;3.60;99.90;;;;;;5049165;28;20029;-43
2022/01/08 11:09:59;;;;;;;18.80;12.70;;;3.70;99.90;;;;;;5045740;28;20085;-43
2022/01/08 11:12:33;;;;;;;18.33;12.35;;;3.70;99.90;;;;;;5049097;28;20079;-43
2022/01/08 11:15:25;;;;;;;20.73;13.32;;;3.80;99.90;;;;;;5048668;28;20025;-42
2022/01/08 11:17:59;;;;;;;22.00;13.40;;;3.80;99.90;;;;;;5047952;28;20651;-43
2022/01/08 11:20:27;;;;;;;22.15;15.18;;;3.80;99.90;;;;;;5048994;28;20836;-43
2022/01/08 11:22:55;;;;;;;22.20;14.20;;;3.80;99.90;;;;;;5048678;28;20021;-43
2022/01/08 11:25:28;;;;;;;21.98;14.48;;;3.80;99.90;;;;;;5044436;28;20017;-43
2022/01/08 11:27:59;;;;;;;22.38;15.90;;;3.90;99.90;;;;;;5048534;28;20350;-44
2022/01/08 11:30:30;;;;;;;24.30;15.27;;;3.90;99.90;;;;;;5047052;28;20366;-43
2022/01/08 11:33:01;;;;;;;21.73;14.63;;;4.00;99.90;;;;;;5048345;28;20036;-43
2022/01/08 11:35:27;;;;;;;20.48;13.65;;;4.00;99.90;;;;;;5049273;28;20019;-43
2022/01/08 11:37:55;;;;;;;24.08;14.95;;;4.00;99.90;;;;;;5048562;28;20029;-43
2022/01/08 11:40:26;;;;;;;24.33;15.57;;;4.00;99.90;;;;;;5047923;28;20025;-43
2022/01/08 11:42:52;;;;;;;23.83;16.05;;;4.10;99.90;;;;;;5048345;28;20056;-45
2022/01/08 11:45:24;;;;;;;23.45;14.70;;;4.10;99.90;;;;;;5047578;28;20025;-44
2022/01/08 11:47:53;;;;;;;27.33;15.38;;;4.10;99.90;;;;;;5048643;28;20273;-43
2022/01/08 11:50:21;;;;;;;23.45;14.82;;;4.10;99.90;;;;;;5048227;28;20033;-43
2022/01/08 11:52:46;;;;;;;20.25;13.52;;;4.10;99.90;;;;;;5046800;28;20055;-44
2022/01/08 11:55:12;;;;;;;26.08;15.85;;;4.10;99.90;;;;;;5048391;28;20021;-43
2022/01/08 11:57:38;;;;;;;25.42;14.98;;;4.20;99.90;;;;;;5048293;28;20033;-43
2022/01/08 12:00:05;;;;;;;25.48;15.77;;;4.20;99.90;;;;;;5047059;28;20055;-43
2022/01/08 12:02:36;;;;;;;23.27;15.95;;;4.20;99.90;;;;;;5047706;28;20036;-42
2022/01/08 12:05:03;;;;;;;22.33;14.00;;;4.20;99.90;;;;;;5047736;28;20416;-42
2022/01/08 12:07:36;;;;;;;25.73;15.80;;;4.30;99.90;;;;;;5047167;28;20049;-43
2022/01/08 12:10:12;;;;;;;23.60;14.57;;;4.30;99.90;;;;;;5047391;28;20045;-43
2022/01/08 12:12:53;;;;;;;24.02;14.90;;;4.30;99.90;;;;;;5047699;28;20047;-43
2022/01/08 12:15:40;;;;;;;20.50;13.32;;;4.30;99.90;;;;;;5047609;28;20584;-44
2022/01/08 12:18:15;;;;;;;24.85;13.95;;;4.40;99.90;;;;;;5047612;28;20117;-43
2022/01/08 12:20:48;;;;;;;22.17;14.35;;;4.30;99.90;;;;;;5046901;28;20024;-44
2022/01/08 12:23:36;;;;;;;22.08;12.95;;;4.30;99.90;;;;;;5048044;28;20036;-43
2022/01/08 12:26:20;;;;;;;23.23;12.85;;;4.30;99.90;;;;;;5045179;28;20820;-42
2022/01/08 12:28:46;;;;;;;21.85;12.30;;;4.30;99.90;;;;;;5046311;28;20112;-42
2022/01/08 12:31:28;;;;;;;20.98;12.63;;;4.30;99.90;;;;;;5047911;28;20133;-43
2022/01/08 12:34:18;;;;;;;21.45;11.95;;;4.30;99.90;;;;;;5047113;28;20626;-42
2022/01/08 12:36:54;;;;;;;21.42;12.63;;;4.30;99.90;;;;;;5047238;28;20028;-43
2022/01/08 12:39:43;;;;;;;18.55;11.95;;;4.40;99.90;;;;;;5047787;28;20059;-43
2022/01/08 12:42:20;;;;;;;16.30;10.73;;;4.40;99.90;;;;;;5046307;28;20029;-43
2022/01/08 12:45:02;;;;;;;18.02;11.05;;;4.40;99.90;;;;;;5027096;28;20030;-44
2022/01/08 12:47:45;;;;;;;15.52;10.65;;;4.40;99.90;;;;;;5043819;28;20033;-43
2022/01/08 12:50:34;;;;;;;16.30;10.70;;;4.40;99.90;;;;;;5027802;28;20029;-43
2022/01/08 12:53:06;;;;;;;15.95;10.32;;;4.50;99.90;;;;;;5045469;28;20168;-44
2022/01/08 12:55:31;;;;;;;15.45;9.32;;;4.50;99.90;;;;;;5046380;28;20834;-42
2022/01/08 12:57:58;;;;;;;16.67;10.57;;;4.50;99.90;;;;;;5047140;28;20025;-43
2022/01/08 13:00:24;;;;;;;16.95;9.95;;;4.50;99.90;;;;;;5047272;28;20031;-42
2022/01/08 13:02:50;;;;;;;17.40;9.80;;;4.50;99.90;;;;;;5045999;28;20074;-43
2022/01/08 13:05:16;;;;;;;13.82;9.25;;;4.50;99.90;;;;;;5047561;28;20400;-43
2022/01/08 13:07:52;;;;;;;14.52;9.52;;;4.50;99.90;;;;;;5046713;28;20020;-42
2022/01/08 13:10:18;;;;;;;13.27;8.93;;;4.50;99.90;;;;;;5043891;28;20062;-42
2022/01/08 13:13:03;;;;;;;16.38;9.60;;;4.50;99.90;;;;;;5046603;28;20473;-43
2022/01/08 13:15:32;;;;;;;12.93;8.65;;;4.50;99.90;;;;;;5045610;28;20525;-41
2022/01/08 13:18:18;;;;;;;13.32;8.55;;;4.50;99.90;;;;;;5045824;28;20037;-44